This is the latest recevied weather packets stored in our database for station/object KR8N. If no packets are shown the sender has not sent any weather packets the latest 10 day(s).
| Time | Temp. | Humidity | Pressure | Rain* | Wind** | Luminosity | Snow |
|---|---|---|---|---|---|---|---|
| 1778164119 | 10.56° C | 68% | 1016.6 hPa | 0 mm | - | 355 W/m² | - |
| 1778163816 | 11.11° C | 69% | 1016.8 hPa | 0 mm | - | 332 W/m² | - |
| 1778163512 | 10.56° C | 75% | 1016.6 hPa | 0 mm | - | 364 W/m² | - |
| 1778163209 | 10.56° C | 74% | 1016.3 hPa | 0 mm | - | 299 W/m² | - |
| 1778162906 | 10° C | 73% | 1017 hPa | 0 mm | - | 320 W/m² | - |
| 1778162602 | 10.56° C | 72% | 1017 hPa | 0 mm | - | 209 W/m² | - |
| 1778162300 | 10° C | 77% | 1016.8 hPa | 0 mm | - | 324 W/m² | - |
| 1778161997 | 10° C | 77% | 1017 hPa | 0 mm | - | 313 W/m² | - |
| 1778161694 | 10° C | 79% | 1016.8 hPa | 0 mm | - | 263 W/m² | - |
| 1778161390 | 9.44° C | 78% | 1017 hPa | 0 mm | - | 233 W/m² | - |
| 1778161086 | 9.44° C | 80% | 1017.1 hPa | 0 mm | - | 246 W/m² | - |
| 1778160782 | 8.89° C | 82% | 1017.1 hPa | 0 mm | - | 172 W/m² | - |
| 1778160480 | 8.89° C | 84% | 1017.1 hPa | 0 mm | - | 167 W/m² | - |
| 1778160177 | 8.89° C | 82% | 1017.2 hPa | 0 mm | - | 152 W/m² | - |
| 1778159874 | 8.89° C | 85% | 1017.2 hPa | 0 mm | - | 145 W/m² | - |
| 1778159570 | 8.89° C | 82% | 1017.1 hPa | 0 mm | - | 128 W/m² | - |
| 1778159267 | 8.89° C | 84% | 1017.1 hPa | 0 mm | - | 127 W/m² | - |
| 1778158965 | 8.89° C | 84% | 1017.2 hPa | 0 mm | - | 121 W/m² | - |
| 1778158663 | 8.89° C | 85% | 1017.2 hPa | 0 mm | - | 139 W/m² | - |
| 1778158361 | 8.89° C | 83% | 1017.3 hPa | 0 mm | - | 98 W/m² | - |
| 1778158057 | 8.33° C | 86% | 1017.2 hPa | 0 mm | - | 121 W/m² | - |
| 1778157754 | 8.33° C | 84% | 1017.2 hPa | 0 mm | - | 124 W/m² | - |
| 1778157453 | 8.33° C | 85% | 1017.3 hPa | 0 mm | - | 104 W/m² | - |
| 1778157150 | 8.33° C | 84% | 1017.2 hPa | 0 mm | - | 92 W/m² | - |
| 1778156845 | 8.33° C | 85% | 1017.1 hPa | 0 mm | - | 87 W/m² | - |
* Rain latest hour (hover to see other rain measurements)
** Current wind speed in m/s (hover to see current wind gust speed)